sensor_id;sensor_type;location;lat;lon;timestamp;P1;durP1;ratioP1;P2;durP2;ratioP2
8331;SDS011;4203;48.144;14.118;2023-04-01T00:00:27;2.17;;;0.87;;
8331;SDS011;4203;48.144;14.118;2023-04-01T00:02:54;2.07;;;1.03;;
8331;SDS011;4203;48.144;14.118;2023-04-01T00:05:21;2.07;;;0.90;;
8331;SDS011;4203;48.144;14.118;2023-04-01T00:07:49;2.63;;;1.00;;
8331;SDS011;4203;48.144;14.118;2023-04-01T00:10:17;1.63;;;1.00;;
8331;SDS011;4203;48.144;14.118;2023-04-01T00:12:46;4.57;;;1.50;;
8331;SDS011;4203;48.144;14.118;2023-04-01T00:15:13;1.83;;;1.17;;
8331;SDS011;4203;48.144;14.118;2023-04-01T00:17:40;3.03;;;1.40;;
8331;SDS011;4203;48.144;14.118;2023-04-01T00:20:08;0.90;;;0.90;;
8331;SDS011;4203;48.144;14.118;2023-04-01T00:22:35;1.07;;;0.80;;
8331;SDS011;4203;48.144;14.118;2023-04-01T00:25:03;1.43;;;0.70;;
8331;SDS011;4203;48.144;14.118;2023-04-01T00:27:31;6.17;;;1.10;;
8331;SDS011;4203;48.144;14.118;2023-04-01T00:29:59;3.27;;;1.27;;
8331;SDS011;4203;48.144;14.118;2023-04-01T00:32:27;4.90;;;0.83;;
8331;SDS011;4203;48.144;14.118;2023-04-01T00:34:54;1.42;;;1.02;;
8331;SDS011;4203;48.144;14.118;2023-04-01T00:37:21;4.17;;;1.00;;
8331;SDS011;4203;48.144;14.118;2023-04-01T00:39:48;3.20;;;0.80;;
8331;SDS011;4203;48.144;14.118;2023-04-01T00:42:15;1.50;;;0.90;;
8331;SDS011;4203;48.144;14.118;2023-04-01T00:44:45;0.88;;;0.85;;
8331;SDS011;4203;48.144;14.118;2023-04-01T00:47:15;1.60;;;0.85;;
8331;SDS011;4203;48.144;14.118;2023-04-01T00:49:43;2.53;;;0.90;;
8331;SDS011;4203;48.144;14.118;2023-04-01T00:52:14;5.37;;;1.10;;
8331;SDS011;4203;48.144;14.118;2023-04-01T00:54:44;7.50;;;1.47;;
8331;SDS011;4203;48.144;14.118;2023-04-01T00:57:15;1.50;;;1.00;;
8331;SDS011;4203;48.144;14.118;2023-04-01T00:59:47;1.03;;;0.87;;
8331;SDS011;4203;48.144;14.118;2023-04-01T01:02:19;2.23;;;1.07;;
8331;SDS011;4203;48.144;14.118;2023-04-01T01:04:46;2.80;;;1.07;;
8331;SDS011;4203;48.144;14.118;2023-04-01T01:07:17;3.83;;;0.90;;
8331;SDS011;4203;48.144;14.118;2023-04-01T01:09:51;2.30;;;1.00;;
8331;SDS011;4203;48.144;14.118;2023-04-01T01:12:29;1.30;;;0.70;;
8331;SDS011;4203;48.144;14.118;2023-04-01T01:15:03;3.77;;;0.83;;
8331;SDS011;4203;48.144;14.118;2023-04-01T01:17:42;0.80;;;0.80;;
8331;SDS011;4203;48.144;14.118;2023-04-01T01:20:33;1.07;;;0.90;;
8331;SDS011;4203;48.144;14.118;2023-04-01T01:26:34;0.77;;;0.73;;
8331;SDS011;4203;48.144;14.118;2023-04-01T01:29:16;1.80;;;0.77;;
8331;SDS011;4203;48.144;14.118;2023-04-01T01:31:56;1.70;;;0.82;;
8331;SDS011;4203;48.144;14.118;2023-04-01T01:34:30;2.67;;;0.90;;
8331;SDS011;4203;48.144;14.118;2023-04-01T01:37:05;1.77;;;0.80;;
8331;SDS011;4203;48.144;14.118;2023-04-01T01:39:36;2.37;;;1.13;;
8331;SDS011;4203;48.144;14.118;2023-04-01T01:42:06;2.20;;;1.30;;
8331;SDS011;4203;48.144;14.118;2023-04-01T01:44:37;0.87;;;0.70;;
8331;SDS011;4203;48.144;14.118;2023-04-01T01:47:06;2.00;;;1.90;;
8331;SDS011;4203;48.144;14.118;2023-04-01T01:49:35;1.27;;;1.08;;
8331;SDS011;4203;48.144;14.118;2023-04-01T01:52:04;1.67;;;0.88;;
8331;SDS011;4203;48.144;14.118;2023-04-01T01:54:31;3.28;;;0.98;;
8331;SDS011;4203;48.144;14.118;2023-04-01T01:57:01;1.17;;;0.43;;
8331;SDS011;4203;48.144;14.118;2023-04-01T01:59:33;4.53;;;1.03;;
8331;SDS011;4203;48.144;14.118;2023-04-01T02:02:03;2.30;;;0.90;;
8331;SDS011;4203;48.144;14.118;2023-04-01T02:04:33;0.70;;;0.57;;
8331;SDS011;4203;48.144;14.118;2023-04-01T02:07:06;2.05;;;0.88;;
8331;SDS011;4203;48.144;14.118;2023-04-01T02:09:37;1.57;;;1.00;;
8331;SDS011;4203;48.144;14.118;2023-04-01T02:12:05;1.60;;;0.70;;
8331;SDS011;4203;48.144;14.118;2023-04-01T02:14:35;0.70;;;0.70;;
8331;SDS011;4203;48.144;14.118;2023-04-01T02:17:07;0.77;;;0.77;;
8331;SDS011;4203;48.144;14.118;2023-04-01T02:19:39;1.23;;;0.70;;
8331;SDS011;4203;48.144;14.118;2023-04-01T02:22:14;0.73;;;0.70;;
8331;SDS011;4203;48.144;14.118;2023-04-01T02:24:44;0.40;;;0.33;;
8331;SDS011;4203;48.144;14.118;2023-04-01T02:27:12;1.15;;;0.40;;
8331;SDS011;4203;48.144;14.118;2023-04-01T02:29:39;0.70;;;0.70;;
8331;SDS011;4203;48.144;14.118;2023-04-01T02:32:07;1.80;;;0.63;;
8331;SDS011;4203;48.144;14.118;2023-04-01T02:34:36;1.43;;;0.53;;
8331;SDS011;4203;48.144;14.118;2023-04-01T02:37:04;1.40;;;0.60;;
8331;SDS011;4203;48.144;14.118;2023-04-01T02:39:32;2.50;;;0.63;;
8331;SDS011;4203;48.144;14.118;2023-04-01T02:41:59;0.50;;;0.50;;
8331;SDS011;4203;48.144;14.118;2023-04-01T02:44:27;2.37;;;0.60;;
8331;SDS011;4203;48.144;14.118;2023-04-01T02:46:54;1.23;;;0.50;;
8331;SDS011;4203;48.144;14.118;2023-04-01T02:49:21;0.60;;;0.50;;
8331;SDS011;4203;48.144;14.118;2023-04-01T02:51:48;0.50;;;0.50;;
8331;SDS011;4203;48.144;14.118;2023-04-01T02:54:17;2.50;;;0.90;;
8331;SDS011;4203;48.144;14.118;2023-04-01T02:56:45;0.67;;;0.50;;
8331;SDS011;4203;48.144;14.118;2023-04-01T02:59:12;1.80;;;0.80;;
8331;SDS011;4203;48.144;14.118;2023-04-01T03:01:39;1.47;;;0.47;;
8331;SDS011;4203;48.144;14.118;2023-04-01T03:04:07;0.60;;;0.60;;
8331;SDS011;4203;48.144;14.118;2023-04-01T03:06:34;0.90;;;0.60;;
8331;SDS011;4203;48.144;14.118;2023-04-01T03:09:01;0.80;;;0.33;;
8331;SDS011;4203;48.144;14.118;2023-04-01T03:11:28;0.50;;;0.50;;
8331;SDS011;4203;48.144;14.118;2023-04-01T03:13:57;1.40;;;0.57;;
8331;SDS011;4203;48.144;14.118;2023-04-01T03:16:24;0.60;;;0.60;;
8331;SDS011;4203;48.144;14.118;2023-04-01T03:18:51;2.77;;;0.63;;
8331;SDS011;4203;48.144;14.118;2023-04-01T03:21:21;0.47;;;0.43;;
8331;SDS011;4203;48.144;14.118;2023-04-01T03:23:49;0.80;;;0.80;;
8331;SDS011;4203;48.144;14.118;2023-04-01T03:26:16;1.17;;;0.60;;
8331;SDS011;4203;48.144;14.118;2023-04-01T03:28:45;2.57;;;0.57;;
8331;SDS011;4203;48.144;14.118;2023-04-01T03:31:13;0.60;;;0.50;;
8331;SDS011;4203;48.144;14.118;2023-04-01T03:33:41;5.27;;;1.33;;
8331;SDS011;4203;48.144;14.118;2023-04-01T03:36:08;1.00;;;0.90;;
8331;SDS011;4203;48.144;14.118;2023-04-01T03:38:37;1.50;;;0.60;;
8331;SDS011;4203;48.144;14.118;2023-04-01T03:41:05;2.53;;;0.83;;
8331;SDS011;4203;48.144;14.118;2023-04-01T03:43:32;1.83;;;1.00;;
8331;SDS011;4203;48.144;14.118;2023-04-01T03:45:59;1.53;;;0.60;;
8331;SDS011;4203;48.144;14.118;2023-04-01T03:48:28;2.03;;;0.60;;
8331;SDS011;4203;48.144;14.118;2023-04-01T03:50:55;0.77;;;0.60;;
8331;SDS011;4203;48.144;14.118;2023-04-01T03:53:22;1.27;;;0.60;;
8331;SDS011;4203;48.144;14.118;2023-04-01T03:55:50;1.37;;;0.63;;
8331;SDS011;4203;48.144;14.118;2023-04-01T03:58:17;0.67;;;0.60;;
8331;SDS011;4203;48.144;14.118;2023-04-01T04:00:44;1.87;;;0.80;;
8331;SDS011;4203;48.144;14.118;2023-04-01T04:03:12;0.90;;;0.80;;
8331;SDS011;4203;48.144;14.118;2023-04-01T04:05:46;2.63;;;0.90;;
8331;SDS011;4203;48.144;14.118;2023-04-01T04:08:14;2.00;;;1.00;;
8331;SDS011;4203;48.144;14.118;2023-04-01T04:10:42;0.80;;;0.73;;
8331;SDS011;4203;48.144;14.118;2023-04-01T04:13:11;1.70;;;0.70;;
8331;SDS011;4203;48.144;14.118;2023-04-01T04:15:38;1.23;;;0.60;;
8331;SDS011;4203;48.144;14.118;2023-04-01T04:18:05;3.30;;;0.80;;
8331;SDS011;4203;48.144;14.118;2023-04-01T04:20:32;2.27;;;0.70;;
8331;SDS011;4203;48.144;14.118;2023-04-01T04:23:01;1.97;;;0.70;;
8331;SDS011;4203;48.144;14.118;2023-04-01T04:25:28;2.00;;;0.97;;
8331;SDS011;4203;48.144;14.118;2023-04-01T04:27:55;1.03;;;0.83;;
8331;SDS011;4203;48.144;14.118;2023-04-01T04:30:22;0.77;;;0.77;;
8331;SDS011;4203;48.144;14.118;2023-04-01T04:32:50;0.60;;;0.60;;
8331;SDS011;4203;48.144;14.118;2023-04-01T04:35:17;4.90;;;1.13;;
8331;SDS011;4203;48.144;14.118;2023-04-01T04:37:44;2.27;;;0.70;;
8331;SDS011;4203;48.144;14.118;2023-04-01T04:40:13;2.20;;;1.63;;
8331;SDS011;4203;48.144;14.118;2023-04-01T04:42:41;3.37;;;0.80;;
8331;SDS011;4203;48.144;14.118;2023-04-01T04:45:08;2.10;;;1.00;;
8331;SDS011;4203;48.144;14.118;2023-04-01T04:47:36;3.87;;;1.07;;
8331;SDS011;4203;48.144;14.118;2023-04-01T04:50:04;1.83;;;0.60;;
8331;SDS011;4203;48.144;14.118;2023-04-01T04:52:32;1.40;;;0.70;;
8331;SDS011;4203;48.144;14.118;2023-04-01T04:54:59;1.90;;;1.00;;
8331;SDS011;4203;48.144;14.118;2023-04-01T04:57:28;2.53;;;0.70;;
8331;SDS011;4203;48.144;14.118;2023-04-01T04:59:55;1.10;;;1.10;;
8331;SDS011;4203;48.144;14.118;2023-04-01T05:02:22;1.13;;;0.60;;
8331;SDS011;4203;48.144;14.118;2023-04-01T05:04:49;2.80;;;1.07;;
8331;SDS011;4203;48.144;14.118;2023-04-01T05:07:16;1.23;;;0.80;;
8331;SDS011;4203;48.144;14.118;2023-04-01T05:09:43;1.17;;;0.83;;
8331;SDS011;4203;48.144;14.118;2023-04-01T05:12:12;4.53;;;1.27;;
8331;SDS011;4203;48.144;14.118;2023-04-01T05:14:40;0.93;;;0.70;;
8331;SDS011;4203;48.144;14.118;2023-04-01T05:17:08;0.77;;;0.70;;
8331;SDS011;4203;48.144;14.118;2023-04-01T05:19:35;1.70;;;0.80;;
8331;SDS011;4203;48.144;14.118;2023-04-01T05:22:03;0.67;;;0.67;;
8331;SDS011;4203;48.144;14.118;2023-04-01T05:24:30;1.13;;;1.00;;
8331;SDS011;4203;48.144;14.118;2023-04-01T05:26:58;2.40;;;0.63;;
8331;SDS011;4203;48.144;14.118;2023-04-01T05:29:25;3.07;;;0.77;;
8331;SDS011;4203;48.144;14.118;2023-04-01T05:31:54;0.60;;;0.50;;
8331;SDS011;4203;48.144;14.118;2023-04-01T05:34:21;0.97;;;0.70;;
8331;SDS011;4203;48.144;14.118;2023-04-01T05:36:48;3.80;;;0.67;;
8331;SDS011;4203;48.144;14.118;2023-04-01T05:39:15;1.03;;;0.80;;
8331;SDS011;4203;48.144;14.118;2023-04-01T05:41:43;1.23;;;0.73;;
8331;SDS011;4203;48.144;14.118;2023-04-01T05:44:10;1.33;;;0.80;;
8331;SDS011;4203;48.144;14.118;2023-04-01T05:46:38;1.33;;;0.80;;
8331;SDS011;4203;48.144;14.118;2023-04-01T05:49:07;0.80;;;0.80;;
8331;SDS011;4203;48.144;14.118;2023-04-01T05:51:34;2.07;;;0.90;;
8331;SDS011;4203;48.144;14.118;2023-04-01T05:54:02;0.40;;;0.40;;
8331;SDS011;4203;48.144;14.118;2023-04-01T05:56:30;0.70;;;0.70;;
8331;SDS011;4203;48.144;14.118;2023-04-01T05:58:58;1.87;;;0.70;;
8331;SDS011;4203;48.144;14.118;2023-04-01T06:01:25;0.53;;;0.53;;
8331;SDS011;4203;48.144;14.118;2023-04-01T06:03:52;0.70;;;0.70;;
8331;SDS011;4203;48.144;14.118;2023-04-01T06:06:22;0.60;;;0.60;;
8331;SDS011;4203;48.144;14.118;2023-04-01T06:08:51;1.97;;;0.50;;
8331;SDS011;4203;48.144;14.118;2023-04-01T06:11:23;0.63;;;0.60;;
8331;SDS011;4203;48.144;14.118;2023-04-01T06:14:09;0.93;;;0.63;;
8331;SDS011;4203;48.144;14.118;2023-04-01T06:16:49;0.57;;;0.57;;
8331;SDS011;4203;48.144;14.118;2023-04-01T06:19:33;1.23;;;0.63;;
8331;SDS011;4203;48.144;14.118;2023-04-01T06:22:16;0.60;;;0.60;;
8331;SDS011;4203;48.144;14.118;2023-04-01T06:24:57;1.63;;;0.67;;
8331;SDS011;4203;48.144;14.118;2023-04-01T06:27:40;1.67;;;0.60;;
8331;SDS011;4203;48.144;14.118;2023-04-01T06:30:27;0.90;;;0.90;;
8331;SDS011;4203;48.144;14.118;2023-04-01T06:33:07;0.60;;;0.60;;
8331;SDS011;4203;48.144;14.118;2023-04-01T06:35:59;1.23;;;0.73;;
8331;SDS011;4203;48.144;14.118;2023-04-01T06:38:41;0.80;;;0.80;;
8331;SDS011;4203;48.144;14.118;2023-04-01T06:41:32;1.00;;;0.80;;
8331;SDS011;4203;48.144;14.118;2023-04-01T06:44:13;1.03;;;0.80;;
8331;SDS011;4203;48.144;14.118;2023-04-01T06:46:47;0.60;;;0.60;;
8331;SDS011;4203;48.144;14.118;2023-04-01T06:49:34;0.60;;;0.60;;
8331;SDS011;4203;48.144;14.118;2023-04-01T06:52:10;0.60;;;0.60;;
8331;SDS011;4203;48.144;14.118;2023-04-01T06:54:47;1.53;;;0.63;;
8331;SDS011;4203;48.144;14.118;2023-04-01T06:57:20;0.32;;;0.32;;
8331;SDS011;4203;48.144;14.118;2023-04-01T06:59:50;1.08;;;0.50;;
8331;SDS011;4203;48.144;14.118;2023-04-01T07:02:23;1.02;;;0.73;;
8331;SDS011;4203;48.144;14.118;2023-04-01T07:04:58;1.05;;;0.57;;
8331;SDS011;4203;48.144;14.118;2023-04-01T07:07:29;1.13;;;0.90;;
8331;SDS011;4203;48.144;14.118;2023-04-01T07:10:04;0.90;;;0.90;;
8331;SDS011;4203;48.144;14.118;2023-04-01T07:12:38;1.45;;;0.75;;
8331;SDS011;4203;48.144;14.118;2023-04-01T07:15:12;0.93;;;0.90;;
8331;SDS011;4203;48.144;14.118;2023-04-01T07:17:45;0.50;;;0.50;;
8331;SDS011;4203;48.144;14.118;2023-04-01T07:20:20;0.63;;;0.57;;
8331;SDS011;4203;48.144;14.118;2023-04-01T07:22:51;0.40;;;0.40;;
8331;SDS011;4203;48.144;14.118;2023-04-01T07:25:24;1.27;;;0.43;;
8331;SDS011;4203;48.144;14.118;2023-04-01T07:27:55;0.50;;;0.50;;
8331;SDS011;4203;48.144;14.118;2023-04-01T07:30:26;0.30;;;0.30;;
8331;SDS011;4203;48.144;14.118;2023-04-01T07:33:00;0.50;;;0.50;;
8331;SDS011;4203;48.144;14.118;2023-04-01T07:35:36;0.77;;;0.50;;
8331;SDS011;4203;48.144;14.118;2023-04-01T07:38:09;1.13;;;0.50;;
8331;SDS011;4203;48.144;14.118;2023-04-01T07:40:49;1.25;;;0.52;;
8331;SDS011;4203;48.144;14.118;2023-04-01T07:43:32;0.55;;;0.38;;
8331;SDS011;4203;48.144;14.118;2023-04-01T07:46:18;0.40;;;0.40;;
8331;SDS011;4203;48.144;14.118;2023-04-01T07:48:56;2.42;;;0.40;;
8331;SDS011;4203;48.144;14.118;2023-04-01T07:51:31;0.40;;;0.40;;
8331;SDS011;4203;48.144;14.118;2023-04-01T07:54:06;1.40;;;0.35;;
8331;SDS011;4203;48.144;14.118;2023-04-01T07:56:40;0.40;;;0.40;;
8331;SDS011;4203;48.144;14.118;2023-04-01T07:59:14;3.58;;;1.48;;
8331;SDS011;4203;48.144;14.118;2023-04-01T08:01:49;2.47;;;0.68;;
8331;SDS011;4203;48.144;14.118;2023-04-01T08:04:25;0.70;;;0.35;;
8331;SDS011;4203;48.144;14.118;2023-04-01T08:07:04;1.35;;;0.55;;
8331;SDS011;4203;48.144;14.118;2023-04-01T08:09:37;0.43;;;0.43;;
8331;SDS011;4203;48.144;14.118;2023-04-01T08:12:16;0.40;;;0.40;;
8331;SDS011;4203;48.144;14.118;2023-04-01T08:14:56;0.50;;;0.50;;
8331;SDS011;4203;48.144;14.118;2023-04-01T08:17:35;0.40;;;0.40;;
8331;SDS011;4203;48.144;14.118;2023-04-01T08:20:18;0.40;;;0.40;;
8331;SDS011;4203;48.144;14.118;2023-04-01T08:22:56;0.85;;;0.50;;
8331;SDS011;4203;48.144;14.118;2023-04-01T08:25:27;1.23;;;0.40;;
8331;SDS011;4203;48.144;14.118;2023-04-01T08:27:59;0.30;;;0.30;;
8331;SDS011;4203;48.144;14.118;2023-04-01T08:30:38;0.40;;;0.40;;
8331;SDS011;4203;48.144;14.118;2023-04-01T08:33:11;0.32;;;0.32;;
8331;SDS011;4203;48.144;14.118;2023-04-01T08:35:42;0.70;;;0.30;;
8331;SDS011;4203;48.144;14.118;2023-04-01T08:38:15;0.40;;;0.40;;
8331;SDS011;4203;48.144;14.118;2023-04-01T08:40:55;0.70;;;0.40;;
8331;SDS011;4203;48.144;14.118;2023-04-01T08:43:36;0.55;;;0.40;;
8331;SDS011;4203;48.144;14.118;2023-04-01T08:49:40;0.30;;;0.30;;
8331;SDS011;4203;48.144;14.118;2023-04-01T08:52:24;0.73;;;0.57;;
8331;SDS011;4203;48.144;14.118;2023-04-01T08:55:04;0.47;;;0.30;;
8331;SDS011;4203;48.144;14.118;2023-04-01T08:57:52;0.30;;;0.28;;
8331;SDS011;4203;48.144;14.118;2023-04-01T09:00:31;1.55;;;0.65;;
8331;SDS011;4203;48.144;14.118;2023-04-01T09:03:15;0.57;;;0.40;;
8331;SDS011;4203;48.144;14.118;2023-04-01T09:06:06;0.80;;;0.80;;
8331;SDS011;4203;48.144;14.118;2023-04-01T09:12:10;0.63;;;0.50;;
8331;SDS011;4203;48.144;14.118;2023-04-01T09:15:06;1.00;;;0.40;;
8331;SDS011;4203;48.144;14.118;2023-04-01T09:20:44;0.45;;;0.45;;
8331;SDS011;4203;48.144;14.118;2023-04-01T09:23:24;1.27;;;0.70;;
8331;SDS011;4203;48.144;14.118;2023-04-01T09:26:14;1.27;;;0.45;;
8331;SDS011;4203;48.144;14.118;2023-04-01T09:28:54;0.50;;;0.50;;
8331;SDS011;4203;48.144;14.118;2023-04-01T09:34:32;0.60;;;0.40;;
8331;SDS011;4203;48.144;14.118;2023-04-01T09:37:18;1.48;;;0.50;;
8331;SDS011;4203;48.144;14.118;2023-04-01T09:39:54;1.27;;;0.55;;
8331;SDS011;4203;48.144;14.118;2023-04-01T09:42:43;1.90;;;0.35;;
8331;SDS011;4203;48.144;14.118;2023-04-01T09:45:19;1.48;;;0.50;;
8331;SDS011;4203;48.144;14.118;2023-04-01T09:48:02;2.67;;;0.50;;
8331;SDS011;4203;48.144;14.118;2023-04-01T09:50:42;1.25;;;0.47;;
8331;SDS011;4203;48.144;14.118;2023-04-01T09:53:20;0.65;;;0.50;;
8331;SDS011;4203;48.144;14.118;2023-04-01T10:02:38;0.35;;;0.35;;
8331;SDS011;4203;48.144;14.118;2023-04-01T10:11:55;0.35;;;0.35;;
8331;SDS011;4203;48.144;14.118;2023-04-01T10:14:52;0.40;;;0.40;;
8331;SDS011;4203;48.144;14.118;2023-04-01T10:17:47;0.63;;;0.60;;
8331;SDS011;4203;48.144;14.118;2023-04-01T10:23:46;1.00;;;0.50;;
8331;SDS011;4203;48.144;14.118;2023-04-01T10:26:32;0.50;;;0.50;;
8331;SDS011;4203;48.144;14.118;2023-04-01T10:29:28;0.40;;;0.40;;
8331;SDS011;4203;48.144;14.118;2023-04-01T10:32:37;0.75;;;0.45;;
8331;SDS011;4203;48.144;14.118;2023-04-01T10:38:50;0.60;;;0.60;;
8331;SDS011;4203;48.144;14.118;2023-04-01T10:44:54;0.55;;;0.43;;
8331;SDS011;4203;48.144;14.118;2023-04-01T10:53:38;1.60;;;0.50;;
8331;SDS011;4203;48.144;14.118;2023-04-01T10:56:32;0.50;;;0.50;;
8331;SDS011;4203;48.144;14.118;2023-04-01T11:14:37;0.22;;;0.20;;
8331;SDS011;4203;48.144;14.118;2023-04-01T11:17:40;0.30;;;0.30;;
8331;SDS011;4203;48.144;14.118;2023-04-01T11:20:49;1.13;;;0.60;;
8331;SDS011;4203;48.144;14.118;2023-04-01T11:23:33;0.90;;;0.30;;
8331;SDS011;4203;48.144;14.118;2023-04-01T11:26:13;0.25;;;0.25;;
8331;SDS011;4203;48.144;14.118;2023-04-01T11:31:55;1.17;;;0.50;;
8331;SDS011;4203;48.144;14.118;2023-04-01T11:34:41;0.90;;;0.60;;
8331;SDS011;4203;48.144;14.118;2023-04-01T11:37:32;0.65;;;0.35;;
8331;SDS011;4203;48.144;14.118;2023-04-01T11:40:08;0.47;;;0.40;;
8331;SDS011;4203;48.144;14.118;2023-04-01T11:42:49;0.63;;;0.38;;
8331;SDS011;4203;48.144;14.118;2023-04-01T11:45:29;0.10;;;0.10;;
8331;SDS011;4203;48.144;14.118;2023-04-01T11:48:09;0.28;;;0.28;;
8331;SDS011;4203;48.144;14.118;2023-04-01T11:50:52;0.68;;;0.40;;
8331;SDS011;4203;48.144;14.118;2023-04-01T11:53:35;0.40;;;0.40;;
8331;SDS011;4203;48.144;14.118;2023-04-01T11:56:11;0.32;;;0.30;;
8331;SDS011;4203;48.144;14.118;2023-04-01T11:58:58;0.30;;;0.30;;
8331;SDS011;4203;48.144;14.118;2023-04-01T12:01:46;0.20;;;0.20;;
8331;SDS011;4203;48.144;14.118;2023-04-01T12:07:27;0.28;;;0.28;;
8331;SDS011;4203;48.144;14.118;2023-04-01T12:10:14;0.35;;;0.20;;
8331;SDS011;4203;48.144;14.118;2023-04-01T12:12:46;0.20;;;0.20;;
8331;SDS011;4203;48.144;14.118;2023-04-01T12:15:23;0.73;;;0.73;;
8331;SDS011;4203;48.144;14.118;2023-04-01T12:18:02;0.10;;;0.10;;
8331;SDS011;4203;48.144;14.118;2023-04-01T12:20:39;0.35;;;0.30;;
8331;SDS011;4203;48.144;14.118;2023-04-01T12:23:22;0.30;;;0.30;;
8331;SDS011;4203;48.144;14.118;2023-04-01T12:26:19;0.30;;;0.30;;
8331;SDS011;4203;48.144;14.118;2023-04-01T12:29:07;0.20;;;0.20;;
8331;SDS011;4203;48.144;14.118;2023-04-01T12:31:45;0.22;;;0.20;;
8331;SDS011;4203;48.144;14.118;2023-04-01T12:34:31;0.30;;;0.30;;
8331;SDS011;4203;48.144;14.118;2023-04-01T12:37:26;0.40;;;0.40;;
8331;SDS011;4203;48.144;14.118;2023-04-01T12:40:02;0.30;;;0.30;;
8331;SDS011;4203;48.144;14.118;2023-04-01T12:42:59;0.32;;;0.32;;
8331;SDS011;4203;48.144;14.118;2023-04-01T12:45:35;0.57;;;0.40;;
8331;SDS011;4203;48.144;14.118;2023-04-01T12:48:15;0.50;;;0.50;;
8331;SDS011;4203;48.144;14.118;2023-04-01T12:54:04;0.57;;;0.40;;
8331;SDS011;4203;48.144;14.118;2023-04-01T12:56:50;0.95;;;0.40;;
8331;SDS011;4203;48.144;14.118;2023-04-01T12:59:32;0.20;;;0.20;;
8331;SDS011;4203;48.144;14.118;2023-04-01T13:02:13;0.75;;;0.30;;
8331;SDS011;4203;48.144;14.118;2023-04-01T13:11:07;0.30;;;0.30;;
8331;SDS011;4203;48.144;14.118;2023-04-01T13:16:34;0.30;;;0.30;;
8331;SDS011;4203;48.144;14.118;2023-04-01T13:19:06;1.55;;;0.47;;
8331;SDS011;4203;48.144;14.118;2023-04-01T13:21:39;0.40;;;0.40;;
8331;SDS011;4203;48.144;14.118;2023-04-01T13:24:24;0.57;;;0.20;;
8331;SDS011;4203;48.144;14.118;2023-04-01T13:27:01;0.28;;;0.28;;
8331;SDS011;4203;48.144;14.118;2023-04-01T13:29:35;0.43;;;0.43;;
8331;SDS011;4203;48.144;14.118;2023-04-01T13:32:07;0.57;;;0.30;;
8331;SDS011;4203;48.144;14.118;2023-04-01T13:34:52;0.50;;;0.50;;
8331;SDS011;4203;48.144;14.118;2023-04-01T13:37:33;0.43;;;0.43;;
8331;SDS011;4203;48.144;14.118;2023-04-01T13:43:08;0.20;;;0.13;;
8331;SDS011;4203;48.144;14.118;2023-04-01T13:48:52;1.23;;;0.32;;
8331;SDS011;4203;48.144;14.118;2023-04-01T13:51:56;0.30;;;0.30;;
8331;SDS011;4203;48.144;14.118;2023-04-01T13:54:47;0.40;;;0.40;;
8331;SDS011;4203;48.144;14.118;2023-04-01T13:57:30;1.98;;;0.40;;
8331;SDS011;4203;48.144;14.118;2023-04-01T14:06:23;1.02;;;0.40;;
8331;SDS011;4203;48.144;14.118;2023-04-01T14:09:10;0.40;;;0.40;;
8331;SDS011;4203;48.144;14.118;2023-04-01T14:11:56;0.50;;;0.50;;
8331;SDS011;4203;48.144;14.118;2023-04-01T14:14:36;0.40;;;0.40;;
8331;SDS011;4203;48.144;14.118;2023-04-01T14:17:16;0.40;;;0.40;;
8331;SDS011;4203;48.144;14.118;2023-04-01T14:20:17;0.32;;;0.32;;
8331;SDS011;4203;48.144;14.118;2023-04-01T14:22:56;2.05;;;0.28;;
8331;SDS011;4203;48.144;14.118;2023-04-01T14:25:39;0.15;;;0.15;;
8331;SDS011;4203;48.144;14.118;2023-04-01T14:28:18;0.30;;;0.20;;
8331;SDS011;4203;48.144;14.118;2023-04-01T14:31:00;0.20;;;0.20;;
8331;SDS011;4203;48.144;14.118;2023-04-01T14:33:46;0.90;;;0.10;;
8331;SDS011;4203;48.144;14.118;2023-04-01T14:36:27;0.20;;;0.20;;
8331;SDS011;4203;48.144;14.118;2023-04-01T14:39:21;0.20;;;0.20;;
8331;SDS011;4203;48.144;14.118;2023-04-01T14:42:06;1.17;;;0.20;;
8331;SDS011;4203;48.144;14.118;2023-04-01T14:44:49;0.20;;;0.20;;
8331;SDS011;4203;48.144;14.118;2023-04-01T14:47:36;1.38;;;0.30;;
8331;SDS011;4203;48.144;14.118;2023-04-01T14:50:11;0.80;;;0.30;;
8331;SDS011;4203;48.144;14.118;2023-04-01T14:52:42;0.40;;;0.40;;
8331;SDS011;4203;48.144;14.118;2023-04-01T14:55:20;1.10;;;0.40;;
8331;SDS011;4203;48.144;14.118;2023-04-01T14:58:00;0.63;;;0.40;;
8331;SDS011;4203;48.144;14.118;2023-04-01T15:03:40;0.60;;;0.60;;
8331;SDS011;4203;48.144;14.118;2023-04-01T15:06:33;0.35;;;0.35;;
8331;SDS011;4203;48.144;14.118;2023-04-01T15:09:17;0.40;;;0.40;;
8331;SDS011;4203;48.144;14.118;2023-04-01T15:11:54;0.60;;;0.60;;
8331;SDS011;4203;48.144;14.118;2023-04-01T15:14:35;0.40;;;0.40;;
8331;SDS011;4203;48.144;14.118;2023-04-01T15:17:18;0.30;;;0.30;;
8331;SDS011;4203;48.144;14.118;2023-04-01T15:20:01;0.20;;;0.20;;
8331;SDS011;4203;48.144;14.118;2023-04-01T15:22:45;0.30;;;0.30;;
8331;SDS011;4203;48.144;14.118;2023-04-01T15:25:30;0.30;;;0.30;;
8331;SDS011;4203;48.144;14.118;2023-04-01T15:28:15;0.30;;;0.30;;
8331;SDS011;4203;48.144;14.118;2023-04-01T15:30:52;0.20;;;0.20;;
8331;SDS011;4203;48.144;14.118;2023-04-01T15:33:29;0.15;;;0.15;;
8331;SDS011;4203;48.144;14.118;2023-04-01T15:36:23;0.20;;;0.20;;
8331;SDS011;4203;48.144;14.118;2023-04-01T15:38:58;0.22;;;0.22;;
8331;SDS011;4203;48.144;14.118;2023-04-01T15:41:36;0.20;;;0.20;;
8331;SDS011;4203;48.144;14.118;2023-04-01T15:47:23;0.17;;;0.17;;
8331;SDS011;4203;48.144;14.118;2023-04-01T15:50:04;0.30;;;0.30;;
8331;SDS011;4203;48.144;14.118;2023-04-01T15:53:03;0.30;;;0.30;;
8331;SDS011;4203;48.144;14.118;2023-04-01T15:55:43;0.38;;;0.38;;
8331;SDS011;4203;48.144;14.118;2023-04-01T15:58:32;0.30;;;0.30;;
8331;SDS011;4203;48.144;14.118;2023-04-01T16:01:11;0.30;;;0.30;;
8331;SDS011;4203;48.144;14.118;2023-04-01T16:03:52;0.30;;;0.30;;
8331;SDS011;4203;48.144;14.118;2023-04-01T16:09:26;0.20;;;0.20;;
8331;SDS011;4203;48.144;14.118;2023-04-01T16:12:18;0.20;;;0.20;;
8331;SDS011;4203;48.144;14.118;2023-04-01T16:14:55;0.35;;;0.35;;
8331;SDS011;4203;48.144;14.118;2023-04-01T16:17:33;0.20;;;0.20;;
8331;SDS011;4203;48.144;14.118;2023-04-01T16:20:18;0.20;;;0.20;;
8331;SDS011;4203;48.144;14.118;2023-04-01T16:22:49;0.30;;;0.30;;
8331;SDS011;4203;48.144;14.118;2023-04-01T16:25:29;0.30;;;0.30;;
8331;SDS011;4203;48.144;14.118;2023-04-01T16:28:04;0.22;;;0.22;;
8331;SDS011;4203;48.144;14.118;2023-04-01T16:30:43;0.28;;;0.28;;
8331;SDS011;4203;48.144;14.118;2023-04-01T16:33:15;0.28;;;0.28;;
8331;SDS011;4203;48.144;14.118;2023-04-01T16:35:52;0.30;;;0.30;;
8331;SDS011;4203;48.144;14.118;2023-04-01T16:38:23;0.30;;;0.30;;
8331;SDS011;4203;48.144;14.118;2023-04-01T16:41:07;0.20;;;0.20;;
8331;SDS011;4203;48.144;14.118;2023-04-01T16:43:41;0.20;;;0.20;;
8331;SDS011;4203;48.144;14.118;2023-04-01T16:46:18;0.30;;;0.30;;
8331;SDS011;4203;48.144;14.118;2023-04-01T16:49:04;0.30;;;0.30;;
8331;SDS011;4203;48.144;14.118;2023-04-01T16:51:46;0.20;;;0.20;;
8331;SDS011;4203;48.144;14.118;2023-04-01T16:54:26;0.20;;;0.20;;
8331;SDS011;4203;48.144;14.118;2023-04-01T16:57:03;0.52;;;0.30;;
8331;SDS011;4203;48.144;14.118;2023-04-01T16:59:44;0.50;;;0.30;;
8331;SDS011;4203;48.144;14.118;2023-04-01T17:02:15;0.20;;;0.20;;
8331;SDS011;4203;48.144;14.118;2023-04-01T17:04:45;0.30;;;0.30;;
8331;SDS011;4203;48.144;14.118;2023-04-01T17:07:19;0.20;;;0.20;;
8331;SDS011;4203;48.144;14.118;2023-04-01T17:09:56;0.40;;;0.40;;
8331;SDS011;4203;48.144;14.118;2023-04-01T17:12:33;0.22;;;0.22;;
8331;SDS011;4203;48.144;14.118;2023-04-01T17:15:10;0.30;;;0.30;;
8331;SDS011;4203;48.144;14.118;2023-04-01T17:17:47;0.50;;;0.50;;
8331;SDS011;4203;48.144;14.118;2023-04-01T17:20:26;0.30;;;0.30;;
8331;SDS011;4203;48.144;14.118;2023-04-01T17:23:05;0.47;;;0.47;;
8331;SDS011;4203;48.144;14.118;2023-04-01T17:25:48;0.50;;;0.50;;
8331;SDS011;4203;48.144;14.118;2023-04-01T17:28:27;0.47;;;0.47;;
8331;SDS011;4203;48.144;14.118;2023-04-01T17:31:05;0.63;;;0.63;;
8331;SDS011;4203;48.144;14.118;2023-04-01T17:36:35;0.40;;;0.40;;